Time;durP1;ratioP1;P1;durP2;ratioP2;P2;SDS_P1;SDS_P2;PMS_P1;PMS_P2;Temp;Humidity;BMP_temperature;BMP_pressure;BME280_temperature;BME280_humidity;BME280_pressure;Samples;Min_cycle;Max_cycle;Signal;HPM_P1;HPM_P2
2021/01/14 00:02:17;;;;;;;12.80;5.53;;;;;;;;;;5030168;28;20120;-70
2021/01/14 00:04:42;;;;;;;13.48;5.30;;;;;;;;;;5031736;28;20421;-71
2021/01/14 00:07:07;;;;;;;12.32;5.93;;;;;;;;;;5030169;28;20144;-71
2021/01/14 00:09:32;;;;;;;11.95;5.85;;;;;;;;;;5030228;28;20482;-71
2021/01/14 00:11:58;;;;;;;6.45;4.60;;;;;;;;;;5030402;28;20429;-71
2021/01/14 00:14:23;;;;;;;8.52;4.90;;;;;;;;;;5030772;28;20044;-71
2021/01/14 00:16:48;;;;;;;11.93;4.88;;;;;;;;;;5030177;28;20419;-71
2021/01/14 00:19:14;;;;;;;10.52;4.22;;;;;;;;;;5030270;28;20033;-71
2021/01/14 00:21:43;;;;;;;8.80;4.07;;;;;;;;;;5030427;28;20037;-71
2021/01/14 00:24:08;;;;;;;7.47;3.85;;;;;;;;;;5029489;28;20507;-70
2021/01/14 00:26:33;;;;;;;5.78;3.25;;;;;;;;;;5031049;28;20035;-71
2021/01/14 00:28:59;;;;;;;6.07;3.17;;;;;;;;;;5030335;28;20030;-71
2021/01/14 00:31:24;;;;;;;5.03;3.17;;;;;;;;;;5029622;28;20044;-71
2021/01/14 00:33:49;;;;;;;5.68;3.85;;;;;;;;;;5030300;28;20147;-71
2021/01/14 00:36:14;;;;;;;6.65;3.50;;;;;;;;;;5030302;28;20474;-71
2021/01/14 00:38:41;;;;;;;5.40;2.28;;;;;;;;;;5029900;28;20190;-71
2021/01/14 00:41:06;;;;;;;4.47;2.33;;;;;;;;;;5030160;28;20060;-71
2021/01/14 00:43:31;;;;;;;1.52;1.08;;;;;;;;;;5029577;28;20077;-71
2021/01/14 00:45:57;;;;;;;1.55;0.90;;;;;;;;;;5030495;28;20021;-71
2021/01/14 00:48:22;;;;;;;3.42;1.20;;;;;;;;;;5029367;28;20044;-71
2021/01/14 00:50:49;;;;;;;2.58;1.60;;;;;;;;;;5030058;28;20059;-72
2021/01/14 00:53:14;;;;;;;4.15;2.15;;;;;;;;;;5029431;28;20026;-71
2021/01/14 00:55:39;;;;;;;3.75;1.83;;;;;;;;;;5029196;28;20037;-71
2021/01/14 00:58:04;;;;;;;3.17;1.50;;;;;;;;;;5030115;28;20040;-71
2021/01/14 01:00:30;;;;;;;4.03;2.22;;;;;;;;;;5029043;28;20101;-72
2021/01/14 01:02:55;;;;;;;2.53;1.30;;;;;;;;;;5029579;28;20050;-72
2021/01/14 01:05:20;;;;;;;2.22;1.15;;;;;;;;;;5029231;28;20382;-71
2021/01/14 01:07:52;;;;;;;0.95;0.80;;;;;;;;;;5030206;28;20018;-72
2021/01/14 01:10:18;;;;;;;1.10;1.00;;;;;;;;;;5030117;28;20371;-71
2021/01/14 01:12:43;;;;;;;2.55;1.30;;;;;;;;;;5029041;28;20036;-71
2021/01/14 01:15:09;;;;;;;1.10;0.90;;;;;;;;;;5029604;28;20033;-71
2021/01/14 01:17:34;;;;;;;1.67;0.90;;;;;;;;;;5029119;28;20068;-71
2021/01/14 01:19:59;;;;;;;0.70;0.70;;;;;;;;;;5029614;28;20041;-71
2021/01/14 01:22:25;;;;;;;1.35;0.82;;;;;;;;;;5028924;28;20044;-71
2021/01/14 01:24:50;;;;;;;1.42;0.88;;;;;;;;;;5029503;28;20025;-71
2021/01/14 01:27:15;;;;;;;1.17;0.85;;;;;;;;;;5028656;28;20103;-71
2021/01/14 01:29:41;;;;;;;4.10;0.93;;;;;;;;;;5028841;28;20045;-69
2021/01/14 01:32:06;;;;;;;2.17;1.10;;;;;;;;;;5029688;28;20041;-71
2021/01/14 01:34:31;;;;;;;3.00;0.60;;;;;;;;;;5028303;28;20030;-72
2021/01/14 01:36:57;;;;;;;0.70;0.60;;;;;;;;;;5028843;28;20051;-71
2021/01/14 01:39:22;;;;;;;0.98;0.52;;;;;;;;;;5029425;28;20030;-71
2021/01/14 01:41:47;;;;;;;1.05;0.52;;;;;;;;;;5029019;28;20046;-72
2021/01/14 01:44:13;;;;;;;2.15;0.80;;;;;;;;;;5029311;28;20415;-71
2021/01/14 01:46:38;;;;;;;6.13;1.20;;;;;;;;;;5028877;28;20048;-71
2021/01/14 01:49:03;;;;;;;2.30;1.17;;;;;;;;;;5029115;28;20040;-72
2021/01/14 01:51:33;;;;;;;2.15;1.20;;;;;;;;;;5029592;28;20373;-71
2021/01/14 01:53:59;;;;;;;3.95;1.10;;;;;;;;;;5011999;28;20128;-69
2021/01/14 01:56:25;;;;;;;2.67;1.00;;;;;;;;;;5031852;28;20040;-70
2021/01/14 01:58:54;;;;;;;2.05;0.90;;;;;;;;;;5026735;28;20026;-71
2021/01/14 02:01:20;;;;;;;3.42;0.80;;;;;;;;;;5034223;28;20033;-70
2021/01/14 02:03:45;;;;;;;1.27;0.75;;;;;;;;;;5033693;28;20050;-70
2021/01/14 02:06:10;;;;;;;1.27;0.80;;;;;;;;;;5032333;28;20535;-70
2021/01/14 02:08:39;;;;;;;2.55;0.70;;;;;;;;;;5031626;28;20137;-69
2021/01/14 02:11:26;;;;;;;1.10;0.57;;;;;;;;;;5023366;28;20049;-71
2021/01/14 02:14:03;;;;;;;1.27;0.60;;;;;;;;;;5031974;28;20095;-71
2021/01/14 02:16:29;;;;;;;0.88;0.60;;;;;;;;;;5026912;28;20040;-72
2021/01/14 02:18:55;;;;;;;1.48;0.52;;;;;;;;;;5029084;28;20034;-71
2021/01/14 02:21:23;;;;;;;1.58;0.50;;;;;;;;;;5028197;28;20065;-71
2021/01/14 02:24:03;;;;;;;0.65;0.45;;;;;;;;;;5028510;28;20033;-71
2021/01/14 02:26:28;;;;;;;0.90;0.55;;;;;;;;;;5029256;28;20033;-72
2021/01/14 02:28:54;;;;;;;2.67;0.47;;;;;;;;;;5027593;28;20393;-71
2021/01/14 02:31:20;;;;;;;0.43;0.30;;;;;;;;;;5028539;28;20017;-71
2021/01/14 02:33:53;;;;;;;0.85;0.40;;;;;;;;;;5028437;28;20042;-70
2021/01/14 02:36:19;;;;;;;0.28;0.20;;;;;;;;;;5028385;28;20038;-71
2021/01/14 02:38:44;;;;;;;0.90;0.35;;;;;;;;;;5028362;28;20075;-71
2021/01/14 02:41:09;;;;;;;1.90;0.50;;;;;;;;;;5028214;28;20042;-72
2021/01/14 02:43:35;;;;;;;0.50;0.35;;;;;;;;;;5028207;28;20033;-71
2021/01/14 02:46:01;;;;;;;0.52;0.30;;;;;;;;;;5028408;28;20021;-71
2021/01/14 02:48:33;;;;;;;0.73;0.30;;;;;;;;;;5031290;28;20418;-71
2021/01/14 02:51:00;;;;;;;1.17;0.30;;;;;;;;;;5031469;28;20485;-69
2021/01/14 02:53:26;;;;;;;1.50;0.65;;;;;;;;;;5032790;28;20021;-71
2021/01/14 02:55:51;;;;;;;0.22;0.22;;;;;;;;;;5032089;28;20107;-71
2021/01/14 02:58:17;;;;;;;0.63;0.30;;;;;;;;;;5031423;28;20033;-72
2021/01/14 03:00:42;;;;;;;0.47;0.30;;;;;;;;;;5032020;28;20029;-71
2021/01/14 03:03:07;;;;;;;0.10;0.10;;;;;;;;;;5031950;28;20477;-72
2021/01/14 03:05:33;;;;;;;3.58;0.40;;;;;;;;;;5031503;28;20037;-71
2021/01/14 03:07:58;;;;;;;0.30;0.30;;;;;;;;;;5031461;28;20425;-70
2021/01/14 03:10:23;;;;;;;0.30;0.10;;;;;;;;;;5031821;28;20055;-71
2021/01/14 03:12:48;;;;;;;0.95;0.40;;;;;;;;;;5031213;28;20037;-71
2021/01/14 03:15:14;;;;;;;0.38;0.22;;;;;;;;;;5031994;28;20021;-71
2021/01/14 03:17:39;;;;;;;0.30;0.22;;;;;;;;;;5031603;28;20033;-71
2021/01/14 03:20:05;;;;;;;1.67;0.50;;;;;;;;;;5031065;28;20026;-71
2021/01/14 03:22:30;;;;;;;0.20;0.20;;;;;;;;;;5031525;28;20462;-72
2021/01/14 03:24:55;;;;;;;0.50;0.28;;;;;;;;;;5032078;28;20026;-71
2021/01/14 03:27:20;;;;;;;0.85;0.32;;;;;;;;;;5031068;28;20139;-72
2021/01/14 03:29:46;;;;;;;1.10;0.30;;;;;;;;;;5031653;28;20025;-72
2021/01/14 03:32:11;;;;;;;0.10;0.10;;;;;;;;;;5031055;28;20036;-71
2021/01/14 03:34:36;;;;;;;0.40;0.20;;;;;;;;;;5031954;28;20029;-71
2021/01/14 03:37:02;;;;;;;0.40;0.30;;;;;;;;;;5031186;28;20048;-71
2021/01/14 03:39:27;;;;;;;1.08;0.35;;;;;;;;;;5030953;28;20107;-71
2021/01/14 03:41:53;;;;;;;0.50;0.38;;;;;;;;;;5030893;28;20077;-71
2021/01/14 03:44:19;;;;;;;0.20;0.20;;;;;;;;;;5030971;28;20373;-70
2021/01/14 03:46:44;;;;;;;0.47;0.38;;;;;;;;;;5031324;28;20033;-71
2021/01/14 03:49:10;;;;;;;0.30;0.30;;;;;;;;;;5031075;28;20044;-71
2021/01/14 03:51:35;;;;;;;1.23;0.45;;;;;;;;;;5030622;28;20036;-71
2021/01/14 03:54:00;;;;;;;0.43;0.30;;;;;;;;;;5030817;28;20457;-72
2021/01/14 03:56:25;;;;;;;0.65;0.50;;;;;;;;;;5031136;28;20072;-71
2021/01/14 03:58:51;;;;;;;1.10;0.50;;;;;;;;;;5030480;28;20461;-71
2021/01/14 04:01:16;;;;;;;0.28;0.28;;;;;;;;;;5030510;28;20053;-69
2021/01/14 04:03:42;;;;;;;0.68;0.35;;;;;;;;;;5030658;28;20913;-71
2021/01/14 04:06:08;;;;;;;0.47;0.38;;;;;;;;;;5031318;28;20026;-71
2021/01/14 04:08:33;;;;;;;0.30;0.30;;;;;;;;;;5030241;28;20045;-71
2021/01/14 04:10:58;;;;;;;0.40;0.30;;;;;;;;;;5030394;28;20053;-71
2021/01/14 04:13:24;;;;;;;0.55;0.40;;;;;;;;;;5030220;28;20100;-71
2021/01/14 04:15:49;;;;;;;2.15;0.50;;;;;;;;;;5030386;28;20107;-71
2021/01/14 04:18:14;;;;;;;1.23;0.50;;;;;;;;;;5031033;28;20090;-71
2021/01/14 04:20:39;;;;;;;0.60;0.60;;;;;;;;;;5030515;28;20025;-71
2021/01/14 04:23:05;;;;;;;0.60;0.50;;;;;;;;;;5029809;28;20432;-71
2021/01/14 04:25:30;;;;;;;0.50;0.32;;;;;;;;;;5030596;28;20033;-71
2021/01/14 04:28:02;;;;;;;0.40;0.40;;;;;;;;;;5030727;28;20024;-72
2021/01/14 04:30:31;;;;;;;2.22;0.50;;;;;;;;;;5030396;28;20402;-71
2021/01/14 04:33:10;;;;;;;0.77;0.50;;;;;;;;;;5030593;28;20037;-71
2021/01/14 04:35:41;;;;;;;0.55;0.47;;;;;;;;;;5030111;28;20052;-69
2021/01/14 04:38:06;;;;;;;0.88;0.63;;;;;;;;;;5030557;28;20044;-71
2021/01/14 04:40:32;;;;;;;0.55;0.50;;;;;;;;;;5029599;28;20010;-72
2021/01/14 04:42:57;;;;;;;0.68;0.60;;;;;;;;;;5029122;28;20025;-72
2021/01/14 04:45:22;;;;;;;0.98;0.60;;;;;;;;;;5030113;28;20476;-71
2021/01/14 04:47:48;;;;;;;0.75;0.60;;;;;;;;;;5029219;28;20041;-69
2021/01/14 04:50:16;;;;;;;0.63;0.43;;;;;;;;;;5030369;28;20478;-72
2021/01/14 04:52:42;;;;;;;0.50;0.50;;;;;;;;;;5029488;28;20037;-72
2021/01/14 04:55:13;;;;;;;0.63;0.43;;;;;;;;;;5029805;28;20053;-70
2021/01/14 04:57:39;;;;;;;1.25;0.60;;;;;;;;;;5029180;28;20028;-71
2021/01/14 05:00:04;;;;;;;1.55;0.82;;;;;;;;;;5029540;28;20029;-71
2021/01/14 05:02:32;;;;;;;5.95;1.55;;;;;;;;;;5030082;28;20032;-69
2021/01/14 05:05:01;;;;;;;3.83;1.70;;;;;;;;;;5030218;28;20030;-71
2021/01/14 05:07:31;;;;;;;3.65;1.70;;;;;;;;;;5029611;28;20466;-71
2021/01/14 05:10:03;;;;;;;4.82;2.28;;;;;;;;;;5029019;28;20073;-72
2021/01/14 05:12:32;;;;;;;4.35;1.90;;;;;;;;;;5029065;28;20398;-72
2021/01/14 05:14:58;;;;;;;4.72;1.77;;;;;;;;;;5029169;28;21232;-71
2021/01/14 05:17:23;;;;;;;9.00;2.38;;;;;;;;;;5029462;28;20029;-71
2021/01/14 05:19:52;;;;;;;5.35;2.10;;;;;;;;;;5028886;28;20023;-72
2021/01/14 05:22:18;;;;;;;2.28;1.25;;;;;;;;;;5029638;28;20473;-71
2021/01/14 05:25:02;;;;;;;4.50;1.83;;;;;;;;;;5029147;28;20027;-71
2021/01/14 05:27:27;;;;;;;4.07;2.08;;;;;;;;;;5029316;28;20033;-72
2021/01/14 05:30:06;;;;;;;5.45;1.77;;;;;;;;;;5029284;28;20039;-72
2021/01/14 05:32:31;;;;;;;4.13;1.95;;;;;;;;;;5029029;28;20109;-71
2021/01/14 05:34:57;;;;;;;4.15;1.67;;;;;;;;;;5029322;28;20041;-71
2021/01/14 05:37:22;;;;;;;4.78;1.85;;;;;;;;;;5029468;28;20025;-71
2021/01/14 05:39:47;;;;;;;3.28;1.58;;;;;;;;;;5029021;28;20060;-71
2021/01/14 05:42:13;;;;;;;3.88;1.73;;;;;;;;;;5029101;28;20056;-71
2021/01/14 05:44:39;;;;;;;3.92;1.80;;;;;;;;;;5029924;28;20071;-71
2021/01/14 05:47:18;;;;;;;11.20;4.43;;;;;;;;;;5028676;28;20045;-72
2021/01/14 05:49:56;;;;;;;14.23;6.13;;;;;;;;;;5029767;28;20120;-71
2021/01/14 05:52:23;;;;;;;13.15;5.70;;;;;;;;;;5028825;28;20478;-72
2021/01/14 05:54:56;;;;;;;18.27;6.68;;;;;;;;;;5029178;28;20040;-71
2021/01/14 05:57:27;;;;;;;10.13;4.28;;;;;;;;;;5028729;28;20037;-71
2021/01/14 05:59:53;;;;;;;11.80;4.20;;;;;;;;;;5028584;28;20034;-71
2021/01/14 06:02:28;;;;;;;4.00;2.40;;;;;;;;;;5029205;28;20083;-69
2021/01/14 06:04:54;;;;;;;5.25;2.78;;;;;;;;;;5028637;28;20037;-71
2021/01/14 06:07:19;;;;;;;4.75;2.50;;;;;;;;;;5029346;28;20084;-71
2021/01/14 06:09:45;;;;;;;6.63;2.88;;;;;;;;;;5029272;28;20102;-71
2021/01/14 06:12:11;;;;;;;5.60;2.72;;;;;;;;;;5031000;28;20475;-70
2021/01/14 06:14:37;;;;;;;5.88;2.70;;;;;;;;;;5032161;28;20033;-71
2021/01/14 06:17:10;;;;;;;5.90;2.88;;;;;;;;;;5032125;28;20033;-71
2021/01/14 06:19:35;;;;;;;6.55;3.13;;;;;;;;;;5032577;28;20025;-71
2021/01/14 06:22:01;;;;;;;7.30;3.38;;;;;;;;;;5033953;28;20049;-71
2021/01/14 06:24:39;;;;;;;7.13;3.33;;;;;;;;;;5036039;28;20366;-70
2021/01/14 06:27:05;;;;;;;8.57;3.35;;;;;;;;;;5035649;28;20037;-71
2021/01/14 06:29:30;;;;;;;8.48;3.35;;;;;;;;;;5035994;28;20064;-69
2021/01/14 06:32:06;;;;;;;6.15;3.05;;;;;;;;;;5035739;28;20100;-70
2021/01/14 06:34:32;;;;;;;8.68;3.15;;;;;;;;;;5035951;28;20029;-69
2021/01/14 06:37:03;;;;;;;8.88;3.05;;;;;;;;;;5035599;28;20064;-69
2021/01/14 06:39:35;;;;;;;7.60;3.10;;;;;;;;;;5035706;28;20025;-69
2021/01/14 06:42:11;;;;;;;6.78;3.38;;;;;;;;;;5035321;28;20417;-69
2021/01/14 06:44:40;;;;;;;7.47;3.20;;;;;;;;;;5035350;28;20520;-69
2021/01/14 06:47:07;;;;;;;9.18;2.83;;;;;;;;;;5035387;28;20029;-69
2021/01/14 06:49:37;;;;;;;9.73;3.05;;;;;;;;;;5035603;28;20029;-69
2021/01/14 06:52:08;;;;;;;8.23;3.42;;;;;;;;;;5035286;28;20040;-69
2021/01/14 06:54:37;;;;;;;11.80;3.95;;;;;;;;;;5035526;28;20449;-69
2021/01/14 06:57:02;;;;;;;9.50;3.22;;;;;;;;;;5035161;28;20042;-69
2021/01/14 06:59:28;;;;;;;11.05;4.60;;;;;;;;;;5035385;28;20022;-68
2021/01/14 07:01:59;;;;;;;9.85;3.80;;;;;;;;;;5035351;28;20075;-69
2021/01/14 07:04:37;;;;;;;10.20;3.90;;;;;;;;;;5035343;28;20034;-69
2021/01/14 07:07:21;;;;;;;9.75;4.10;;;;;;;;;;5035052;28;20071;-69
2021/01/14 07:09:49;;;;;;;10.65;3.70;;;;;;;;;;5034821;28;20504;-69
2021/01/14 07:12:15;;;;;;;10.57;3.78;;;;;;;;;;5035005;28;20053;-69
2021/01/14 07:14:45;;;;;;;8.55;4.15;;;;;;;;;;5035074;28;20111;-69
2021/01/14 07:17:17;;;;;;;11.20;4.68;;;;;;;;;;5034903;28;20021;-69
2021/01/14 07:19:42;;;;;;;13.90;6.55;;;;;;;;;;5035041;28;20048;-69
2021/01/14 07:22:08;;;;;;;21.40;7.65;;;;;;;;;;5034662;28;20482;-69
2021/01/14 07:24:34;;;;;;;21.60;6.35;;;;;;;;;;5034977;28;20072;-69
2021/01/14 07:27:00;;;;;;;22.67;5.65;;;;;;;;;;5034642;28;20053;-69
2021/01/14 07:29:26;;;;;;;24.67;6.18;;;;;;;;;;5034779;28;20116;-70
2021/01/14 07:31:52;;;;;;;24.58;12.57;;;;;;;;;;5034478;28;20113;-69
2021/01/14 07:34:36;;;;;;;19.58;6.15;;;;;;;;;;5033637;28;20083;-69
2021/01/14 07:37:02;;;;;;;14.75;6.45;;;;;;;;;;5034419;28;20037;-71
2021/01/14 07:39:46;;;;;;;33.72;17.90;;;;;;;;;;5034667;28;20030;-71
2021/01/14 07:42:28;;;;;;;142.18;78.97;;;;;;;;;;5033839;28;20042;-71
2021/01/14 07:44:54;;;;;;;79.07;38.50;;;;;;;;;;5034384;28;20039;-71
2021/01/14 07:47:30;;;;;;;52.05;30.10;;;;;;;;;;5034417;28;20041;-71
2021/01/14 07:49:55;;;;;;;40.38;21.02;;;;;;;;;;5034377;28;20028;-69
2021/01/14 07:52:34;;;;;;;43.78;26.48;;;;;;;;;;5034031;28;20045;-70
2021/01/14 07:55:01;;;;;;;52.45;27.88;;;;;;;;;;5034119;28;20075;-68
2021/01/14 07:57:28;;;;;;;58.85;33.33;;;;;;;;;;5034184;28;20037;-69
2021/01/14 07:59:56;;;;;;;59.47;36.17;;;;;;;;;;5034102;28;20025;-69
2021/01/14 08:02:21;;;;;;;61.63;33.25;;;;;;;;;;5033977;28;20064;-69
2021/01/14 08:04:52;;;;;;;59.22;35.33;;;;;;;;;;5034082;28;20355;-69
2021/01/14 08:07:21;;;;;;;45.95;25.13;;;;;;;;;;5034033;28;20123;-70
2021/01/14 08:09:47;;;;;;;31.17;10.05;;;;;;;;;;5033946;28;20136;-69
2021/01/14 08:12:12;;;;;;;30.30;12.70;;;;;;;;;;5033764;28;20029;-69
2021/01/14 08:14:40;;;;;;;26.38;8.30;;;;;;;;;;5033938;28;20021;-69
2021/01/14 08:17:22;;;;;;;23.13;7.65;;;;;;;;;;5033640;28;20080;-69
2021/01/14 08:19:48;;;;;;;30.20;10.15;;;;;;;;;;5034104;28;20044;-69
2021/01/14 08:22:14;;;;;;;28.10;11.15;;;;;;;;;;5032106;28;20041;-71
2021/01/14 08:24:45;;;;;;;30.67;7.30;;;;;;;;;;5033867;28;20034;-71
2021/01/14 08:27:12;;;;;;;10.02;3.88;;;;;;;;;;5033459;28;20041;-71
2021/01/14 08:29:45;;;;;;;18.85;5.57;;;;;;;;;;5033698;28;20036;-71
2021/01/14 08:32:29;;;;;;;8.77;3.95;;;;;;;;;;5032682;28;20033;-72
2021/01/14 08:34:58;;;;;;;20.52;7.03;;;;;;;;;;5030960;28;20041;-72
2021/01/14 08:37:34;;;;;;;13.18;5.78;;;;;;;;;;5033104;28;20029;-71
2021/01/14 08:40:00;;;;;;;4.82;2.00;;;;;;;;;;5033322;28;20036;-71
2021/01/14 08:42:30;;;;;;;4.20;2.20;;;;;;;;;;5032859;28;20046;-71
2021/01/14 08:44:58;;;;;;;4.18;1.95;;;;;;;;;;5032782;28;20018;-71
2021/01/14 08:47:43;;;;;;;5.85;2.38;;;;;;;;;;5032854;28;20057;-71
2021/01/14 08:50:08;;;;;;;4.43;1.77;;;;;;;;;;5029859;28;20025;-69
2021/01/14 08:52:34;;;;;;;2.92;1.38;;;;;;;;;;5032861;28;20040;-69
2021/01/14 08:55:01;;;;;;;3.53;0.90;;;;;;;;;;5032620;28;20021;-70
2021/01/14 08:57:46;;;;;;;1.45;0.90;;;;;;;;;;5032537;28;20057;-69
2021/01/14 09:00:12;;;;;;;2.38;0.90;;;;;;;;;;5032291;28;20037;-70
2021/01/14 09:02:37;;;;;;;0.90;0.40;;;;;;;;;;5032682;28;20753;-70
2021/01/14 09:05:03;;;;;;;1.17;0.57;;;;;;;;;;5032740;28;20029;-69
2021/01/14 09:07:28;;;;;;;1.10;0.45;;;;;;;;;;5032616;28;20030;-70
2021/01/14 09:09:53;;;;;;;0.30;0.15;;;;;;;;;;5019508;28;20053;-71
2021/01/14 09:12:20;;;;;;;0.30;0.30;;;;;;;;;;5031336;28;20389;-72
2021/01/14 09:14:46;;;;;;;0.70;0.40;;;;;;;;;;5026598;28;20092;-71
2021/01/14 09:17:15;;;;;;;0.43;0.30;;;;;;;;;;5026278;28;20041;-71
2021/01/14 09:19:40;;;;;;;0.45;0.20;;;;;;;;;;5028809;28;20022;-71
2021/01/14 09:22:05;;;;;;;0.30;0.17;;;;;;;;;;5028501;28;20377;-71
2021/01/14 09:24:32;;;;;;;0.65;0.30;;;;;;;;;;5029303;28;20033;-71
2021/01/14 09:26:57;;;;;;;0.95;0.20;;;;;;;;;;5028429;28;20377;-71
2021/01/14 09:29:29;;;;;;;1.23;0.30;;;;;;;;;;5029819;28;20033;-71
2021/01/14 09:31:54;;;;;;;0.30;0.30;;;;;;;;;;5029811;28;20037;-71
2021/01/14 09:34:21;;;;;;;0.47;0.30;;;;;;;;;;5030837;28;20381;-71
2021/01/14 09:36:47;;;;;;;7.68;0.40;;;;;;;;;;5031424;28;20470;-71
2021/01/14 09:39:16;;;;;;;0.35;0.28;;;;;;;;;;5031649;28;20061;-71
2021/01/14 09:41:41;;;;;;;2.30;0.30;;;;;;;;;;5022138;28;20035;-71
2021/01/14 09:44:08;;;;;;;0.50;0.40;;;;;;;;;;5028494;28;20045;-71
2021/01/14 09:46:37;;;;;;;1.00;0.40;;;;;;;;;;5029697;28;20069;-71
2021/01/14 09:49:05;;;;;;;1.00;0.50;;;;;;;;;;5029238;28;20025;-72
2021/01/14 09:51:31;;;;;;;0.57;0.20;;;;;;;;;;5029170;28;20386;-71
2021/01/14 09:53:56;;;;;;;0.90;0.30;;;;;;;;;;5029259;28;20033;-71
2021/01/14 09:56:23;;;;;;;0.90;0.40;;;;;;;;;;5029710;28;20025;-71
2021/01/14 09:58:53;;;;;;;1.40;0.50;;;;;;;;;;5033181;28;20036;-71
2021/01/14 10:01:20;;;;;;;0.68;0.50;;;;;;;;;;5033521;28;20033;-72
2021/01/14 10:03:47;;;;;;;0.52;0.40;;;;;;;;;;5033029;28;20037;-71
2021/01/14 10:06:13;;;;;;;1.17;0.68;;;;;;;;;;5033213;28;20033;-69
2021/01/14 10:08:45;;;;;;;0.63;0.40;;;;;;;;;;5033496;28;20104;-71
2021/01/14 10:11:11;;;;;;;1.38;0.75;;;;;;;;;;5033678;28;20046;-71
2021/01/14 10:13:36;;;;;;;1.75;1.13;;;;;;;;;;5032676;28;20034;-72
2021/01/14 10:16:08;;;;;;;1.67;0.40;;;;;;;;;;5032764;28;20036;-71
2021/01/14 10:18:33;;;;;;;1.17;0.60;;;;;;;;;;5032767;28;20029;-70
2021/01/14 10:20:59;;;;;;;0.45;0.20;;;;;;;;;;5032780;28;20032;-71
2021/01/14 10:23:25;;;;;;;1.13;0.50;;;;;;;;;;5032801;28;20046;-72
2021/01/14 10:25:51;;;;;;;0.82;0.43;;;;;;;;;;5032825;28;20017;-71
2021/01/14 10:28:16;;;;;;;0.25;0.20;;;;;;;;;;5033169;28;20067;-71
2021/01/14 10:30:41;;;;;;;1.05;0.40;;;;;;;;;;5032380;28;20528;-71
2021/01/14 10:33:07;;;;;;;1.27;0.50;;;;;;;;;;5032912;28;20036;-72
2021/01/14 10:35:33;;;;;;;1.90;0.43;;;;;;;;;;5032862;28;20035;-72
2021/01/14 10:38:05;;;;;;;2.17;0.70;;;;;;;;;;5032172;28;20037;-71
2021/01/14 10:40:37;;;;;;;3.45;0.75;;;;;;;;;;5032280;28;20032;-71
2021/01/14 10:43:03;;;;;;;1.15;0.63;;;;;;;;;;5030495;28;20045;-71
2021/01/14 10:45:31;;;;;;;1.08;0.40;;;;;;;;;;5031733;28;20504;-71
2021/01/14 10:48:07;;;;;;;3.33;0.47;;;;;;;;;;5031241;28;20068;-71
2021/01/14 10:50:40;;;;;;;4.15;0.35;;;;;;;;;;5031172;28;20076;-71
2021/01/14 10:53:05;;;;;;;1.67;0.57;;;;;;;;;;5031524;28;20108;-71
2021/01/14 10:55:31;;;;;;;1.48;0.43;;;;;;;;;;5030878;28;20127;-72
2021/01/14 10:57:57;;;;;;;1.65;0.70;;;;;;;;;;5029457;28;20033;-72
2021/01/14 11:00:24;;;;;;;2.13;0.60;;;;;;;;;;5030027;28;20029;-71
2021/01/14 11:03:08;;;;;;;3.80;0.50;;;;;;;;;;5029567;28;20477;-72
2021/01/14 11:05:46;;;;;;;1.75;0.63;;;;;;;;;;5032406;28;20104;-72
2021/01/14 11:08:12;;;;;;;1.60;0.50;;;;;;;;;;5030725;28;20037;-72
2021/01/14 11:10:38;;;;;;;1.67;0.50;;;;;;;;;;5031207;28;20045;-72
2021/01/14 11:13:05;;;;;;;0.75;0.40;;;;;;;;;;5031633;28;20036;-70
2021/01/14 11:15:30;;;;;;;0.47;0.30;;;;;;;;;;5031870;28;20025;-71
2021/01/14 11:17:55;;;;;;;1.27;0.40;;;;;;;;;;5032032;28;20030;-72
2021/01/14 11:20:20;;;;;;;1.92;0.57;;;;;;;;;;5032207;28;20035;-72
2021/01/14 11:22:46;;;;;;;0.73;0.20;;;;;;;;;;5029183;28;20043;-72
2021/01/14 11:25:12;;;;;;;4.68;0.50;;;;;;;;;;5031734;28;20039;-72
2021/01/14 11:27:37;;;;;;;0.73;0.40;;;;;;;;;;5031497;28;20029;-72
2021/01/14 11:30:02;;;;;;;0.65;0.30;;;;;;;;;;5029041;28;20028;-69
2021/01/14 11:32:28;;;;;;;0.52;0.20;;;;;;;;;;5031934;28;20381;-72
2021/01/14 11:34:55;;;;;;;0.60;0.22;;;;;;;;;;5031023;28;20484;-71
2021/01/14 11:37:20;;;;;;;0.25;0.17;;;;;;;;;;5031107;28;20025;-71
2021/01/14 11:39:45;;;;;;;1.90;0.22;;;;;;;;;;5027030;28;20143;-72
2021/01/14 11:42:11;;;;;;;0.30;0.20;;;;;;;;;;5030969;28;20432;-72
2021/01/14 11:44:36;;;;;;;1.30;0.38;;;;;;;;;;5031395;28;20014;-70
2021/01/14 11:47:01;;;;;;;1.63;0.25;;;;;;;;;;5029444;28;20029;-71
2021/01/14 11:49:28;;;;;;;0.45;0.20;;;;;;;;;;5031007;28;20439;-71
2021/01/14 11:51:53;;;;;;;1.30;0.20;;;;;;;;;;5031416;28;20204;-72
2021/01/14 11:54:19;;;;;;;0.60;0.30;;;;;;;;;;5030470;28;20466;-72
2021/01/14 11:56:44;;;;;;;3.00;0.47;;;;;;;;;;5030893;28;20040;-72
2021/01/14 11:59:09;;;;;;;2.20;0.80;;;;;;;;;;5030501;28;20028;-69
2021/01/14 12:01:34;;;;;;;0.90;0.40;;;;;;;;;;5031539;28;20112;-72
2021/01/14 12:04:00;;;;;;;0.75;0.30;;;;;;;;;;5030982;28;20054;-72
2021/01/14 12:06:25;;;;;;;0.50;0.25;;;;;;;;;;5028296;28;20110;-72
2021/01/14 12:08:50;;;;;;;1.63;0.70;;;;;;;;;;5030622;28;20040;-72
2021/01/14 12:11:19;;;;;;;0.85;0.20;;;;;;;;;;5030684;28;20128;-72
2021/01/14 12:13:45;;;;;;;0.45;0.30;;;;;;;;;;5030847;28;20073;-72
2021/01/14 12:16:10;;;;;;;3.10;0.55;;;;;;;;;;5028542;28;20108;-71
2021/01/14 12:18:35;;;;;;;2.38;0.40;;;;;;;;;;5030423;28;20034;-71
2021/01/14 12:21:01;;;;;;;4.25;0.47;;;;;;;;;;5030344;28;20459;-72
2021/01/14 12:23:26;;;;;;;0.70;0.40;;;;;;;;;;5030223;28;20045;-72
2021/01/14 12:25:51;;;;;;;1.17;0.32;;;;;;;;;;5029996;28;20029;-72
2021/01/14 12:28:16;;;;;;;1.50;0.50;;;;;;;;;;5030103;28;20025;-70
2021/01/14 12:30:42;;;;;;;1.02;0.43;;;;;;;;;;5019847;28;20036;-71
2021/01/14 12:33:07;;;;;;;2.47;0.50;;;;;;;;;;5030242;28;20068;-71
2021/01/14 12:35:32;;;;;;;1.20;0.30;;;;;;;;;;5029559;28;20450;-72
2021/01/14 12:37:57;;;;;;;2.15;0.57;;;;;;;;;;5030187;28;20043;-72
2021/01/14 12:40:23;;;;;;;0.63;0.40;;;;;;;;;;5029671;28;20040;-71
2021/01/14 12:42:48;;;;;;;0.20;0.20;;;;;;;;;;5030754;28;20029;-71
2021/01/14 12:45:13;;;;;;;6.40;0.30;;;;;;;;;;5030235;28;20029;-71
2021/01/14 12:47:42;;;;;;;1.02;0.35;;;;;;;;;;5030164;28;20458;-70
2021/01/14 12:50:07;;;;;;;0.63;0.30;;;;;;;;;;5029943;28;20069;-72
2021/01/14 12:52:33;;;;;;;2.70;0.30;;;;;;;;;;5030086;28;20068;-72
2021/01/14 12:54:58;;;;;;;2.17;0.40;;;;;;;;;;5027655;28;20037;-70
2021/01/14 12:57:23;;;;;;;1.77;0.68;;;;;;;;;;5029782;28;20029;-71
2021/01/14 12:59:49;;;;;;;1.02;0.47;;;;;;;;;;5030264;28;20061;-71
2021/01/14 13:02:14;;;;;;;1.77;0.50;;;;;;;;;;5029315;28;20037;-71
2021/01/14 13:04:39;;;;;;;0.32;0.30;;;;;;;;;;5030021;28;20109;-71
2021/01/14 13:07:04;;;;;;;0.70;0.40;;;;;;;;;;5029399;28;20037;-72
2021/01/14 13:09:30;;;;;;;2.42;0.43;;;;;;;;;;5023517;28;20084;-71
2021/01/14 13:11:56;;;;;;;1.88;0.70;;;;;;;;;;5030212;28;20026;-72
2021/01/14 13:14:21;;;;;;;2.38;0.40;;;;;;;;;;5030228;28;20133;-71
2021/01/14 13:16:46;;;;;;;1.10;0.52;;;;;;;;;;5026699;28;20075;-71
2021/01/14 13:19:12;;;;;;;5.13;0.90;;;;;;;;;;5025688;28;20412;-71
2021/01/14 13:21:41;;;;;;;1.75;0.40;;;;;;;;;;5029863;28;20466;-71
2021/01/14 13:24:07;;;;;;;0.82;0.40;;;;;;;;;;5029458;28;20041;-72
2021/01/14 13:26:33;;;;;;;0.73;0.30;;;;;;;;;;5027352;28;20032;-71
2021/01/14 13:28:59;;;;;;;0.47;0.30;;;;;;;;;;5029853;28;20033;-71
2021/01/14 13:31:25;;;;;;;1.45;0.47;;;;;;;;;;5029388;28;20037;-71
2021/01/14 13:33:50;;;;;;;0.45;0.40;;;;;;;;;;5025982;28;20040;-72
2021/01/14 13:36:16;;;;;;;1.77;0.50;;;;;;;;;;5029052;28;20134;-72
2021/01/14 13:38:42;;;;;;;0.68;0.40;;;;;;;;;;5024779;28;20618;-70
2021/01/14 13:41:08;;;;;;;2.50;0.50;;;;;;;;;;5028009;28;20021;-71
2021/01/14 13:43:33;;;;;;;5.03;0.63;;;;;;;;;;5029431;28;20466;-69
2021/01/14 13:45:59;;;;;;;1.45;0.60;;;;;;;;;;5027169;28;20037;-71
2021/01/14 13:48:24;;;;;;;1.85;0.70;;;;;;;;;;5029248;28;20151;-71
2021/01/14 13:50:49;;;;;;;1.52;0.80;;;;;;;;;;5029072;28;20454;-72
2021/01/14 13:53:14;;;;;;;2.80;1.27;;;;;;;;;;5026517;28;20034;-71
2021/01/14 13:55:42;;;;;;;1.92;0.90;;;;;;;;;;5029143;28;20104;-71
2021/01/14 13:58:11;;;;;;;2.28;1.20;;;;;;;;;;5025241;28;20410;-71
2021/01/14 14:00:36;;;;;;;3.00;1.20;;;;;;;;;;5029196;28;20037;-69
2021/01/14 14:03:02;;;;;;;2.47;1.10;;;;;;;;;;5029029;28;20402;-72
2021/01/14 14:05:27;;;;;;;1.15;0.80;;;;;;;;;;5029127;28;20033;-72
2021/01/14 14:07:53;;;;;;;2.08;1.20;;;;;;;;;;5028898;28;20470;-72
2021/01/14 14:10:18;;;;;;;1.40;0.90;;;;;;;;;;5028921;28;20096;-72
2021/01/14 14:12:43;;;;;;;1.63;0.93;;;;;;;;;;5029052;28;20043;-71
2021/01/14 14:15:09;;;;;;;2.00;0.82;;;;;;;;;;5029877;28;20044;-72
2021/01/14 14:17:34;;;;;;;2.85;1.40;;;;;;;;;;5028768;28;20032;-72
2021/01/14 14:19:59;;;;;;;4.50;0.85;;;;;;;;;;5028629;28;20079;-72
2021/01/14 14:22:25;;;;;;;1.25;0.68;;;;;;;;;;5028914;28;20033;-72
2021/01/14 14:24:50;;;;;;;2.10;0.80;;;;;;;;;;5028976;28;20420;-72
2021/01/14 14:27:15;;;;;;;2.10;0.82;;;;;;;;;;5028793;28;20051;-71
2021/01/14 14:29:40;;;;;;;2.10;0.68;;;;;;;;;;5029004;28;20036;-72
2021/01/14 14:32:06;;;;;;;1.38;0.70;;;;;;;;;;5028961;28;20017;-71
2021/01/14 14:34:31;;;;;;;1.83;1.00;;;;;;;;;;5028533;28;20048;-72
2021/01/14 14:36:56;;;;;;;2.05;1.13;;;;;;;;;;5028682;28;20520;-72
2021/01/14 14:39:22;;;;;;;2.00;0.80;;;;;;;;;;5028679;28;20017;-72
2021/01/14 14:41:50;;;;;;;1.30;0.70;;;;;;;;;;5029203;28;20359;-71